Kemmerer, Wyoming
Current Conditions -  °F | °C
As of 3:15 PM on Tuesday 25 Nov 2014 (Local Time) from KEMM Reporting Station
Light Snow Light Snow  
Wind Chill: 16°   Ceiling: 500
Heat Index: 32°   Visibility: 1mi
Dew Point: 32°   Wind: 38mph
Humidity: 100%   Direction: 260°W
Pressure: 30.08"   Gusts: 47mph
Location:  41.79°N, 110.54°W
Report Text: KEMM 252215Z AUTO 26033G41KT 1SM -SN OVC005 00/00 A3008 RMK AO2
Loading
Personal Weather Stations






























Interactive Weather Map New forecast layout! Learn more

10-Day Weather Forecast

Advertisements
Track Severe Weather on mobile